Time;durP1;ratioP1;P1;durP2;ratioP2;P2;SDS_P1;SDS_P2;PMS_P1;PMS_P2;Temp;Humidity;BMP_temperature;BMP_pressure;BME280_temperature;BME280_humidity;BME280_pressure;Samples;Min_cycle;Max_cycle;Signal;HPM_P1;HPM_P2
2022/07/09 00:02:03;;;;;;;8.15;4.18;;;;;;;;;;5005091;28;20079;-85
2022/07/09 00:04:28;;;;;;;7.25;4.97;;;;;;;;;;5014133;28;20103;-84
2022/07/09 00:06:53;;;;;;;8.85;3.90;;;;;;;;;;5023291;28;20057;-86
2022/07/09 00:09:19;;;;;;;7.53;4.72;;;;;;;;;;5011260;28;20397;-84
2022/07/09 00:11:44;;;;;;;7.57;3.95;;;;;;;;;;5025831;28;20026;-87
2022/07/09 00:14:09;;;;;;;5.57;3.42;;;;;;;;;;5011715;28;20025;-84
2022/07/09 00:16:34;;;;;;;8.13;4.18;;;;;;;;;;5012210;28;20014;-88
2022/07/09 00:19:00;;;;;;;4.85;4.03;;;;;;;;;;5022973;28;20030;-87
2022/07/09 00:21:25;;;;;;;7.90;3.70;;;;;;;;;;5011355;28;20421;-84
2022/07/09 00:23:50;;;;;;;8.10;3.97;;;;;;;;;;5028337;28;20061;-84
2022/07/09 00:26:15;;;;;;;11.20;5.30;;;;;;;;;;5012580;28;20026;-84
2022/07/09 00:28:41;;;;;;;8.40;4.55;;;;;;;;;;5013338;28;20060;-87
2022/07/09 00:31:06;;;;;;;9.45;4.13;;;;;;;;;;5012096;28;20024;-85
2022/07/09 00:33:31;;;;;;;9.52;4.22;;;;;;;;;;5023510;28;20030;-86
2022/07/09 00:35:57;;;;;;;9.27;4.43;;;;;;;;;;5024667;28;20393;-85
2022/07/09 00:38:22;;;;;;;8.98;4.07;;;;;;;;;;5009599;28;20027;-85
2022/07/09 00:40:47;;;;;;;5.93;3.97;;;;;;;;;;5024011;28;20038;-84
2022/07/09 00:43:20;;;;;;;11.20;5.07;;;;;;;;;;5008612;28;20030;-86
2022/07/09 00:45:45;;;;;;;8.88;3.97;;;;;;;;;;5029462;28;20478;-85
2022/07/09 00:48:11;;;;;;;5.85;4.00;;;;;;;;;;5010006;28;20044;-85
2022/07/09 00:50:36;;;;;;;7.85;4.00;;;;;;;;;;5014222;28;20106;-85
2022/07/09 00:53:02;;;;;;;8.63;4.82;;;;;;;;;;5025313;28;20339;-86
2022/07/09 00:55:28;;;;;;;4.90;3.97;;;;;;;;;;5009270;28;20026;-84
2022/07/09 00:57:53;;;;;;;5.78;3.78;;;;;;;;;;5026343;28;20486;-88
2022/07/09 01:00:18;;;;;;;8.73;3.80;;;;;;;;;;5026518;28;20069;-85
2022/07/09 01:02:49;;;;;;;11.27;4.68;;;;;;;;;;5007569;28;20038;-85
2022/07/09 01:05:17;;;;;;;8.43;3.50;;;;;;;;;;5023170;28;20033;-88
2022/07/09 01:07:43;;;;;;;5.07;3.30;;;;;;;;;;5008364;28;20044;-84
2022/07/09 01:10:08;;;;;;;4.65;3.13;;;;;;;;;;5008009;28;20048;-84
2022/07/09 01:12:33;;;;;;;6.35;4.05;;;;;;;;;;5004524;28;20030;-85
2022/07/09 01:14:58;;;;;;;5.82;3.90;;;;;;;;;;5004972;28;20026;-84
2022/07/09 01:17:24;;;;;;;5.45;3.83;;;;;;;;;;5003849;28;20560;-85
2022/07/09 01:19:49;;;;;;;6.78;4.03;;;;;;;;;;5003202;28;20065;-87
2022/07/09 01:22:14;;;;;;;4.80;3.38;;;;;;;;;;5006616;28;20389;-87
2022/07/09 01:24:39;;;;;;;5.80;3.72;;;;;;;;;;5019155;28;20030;-86
2022/07/09 01:27:05;;;;;;;5.35;3.40;;;;;;;;;;5005764;28;20117;-86
2022/07/09 01:29:30;;;;;;;6.50;3.47;;;;;;;;;;5005470;28;20104;-85
2022/07/09 01:31:55;;;;;;;5.03;3.47;;;;;;;;;;5006610;28;20478;-85
2022/07/09 01:34:24;;;;;;;6.75;4.07;;;;;;;;;;5002546;28;20089;-85
2022/07/09 01:36:49;;;;;;;7.40;4.30;;;;;;;;;;5004222;28;20104;-86
2022/07/09 01:39:14;;;;;;;8.38;4.47;;;;;;;;;;5003320;28;20513;-85
2022/07/09 01:41:39;;;;;;;8.32;4.35;;;;;;;;;;5006118;28;20025;-85
2022/07/09 01:44:06;;;;;;;6.60;3.70;;;;;;;;;;5018911;28;20038;-85
2022/07/09 01:46:32;;;;;;;7.40;4.25;;;;;;;;;;5003328;28;20109;-84
2022/07/09 01:48:57;;;;;;;9.48;4.32;;;;;;;;;;5016664;28;20120;-85
2022/07/09 01:51:22;;;;;;;9.63;4.53;;;;;;;;;;5021207;28;20049;-84
2022/07/09 01:53:48;;;;;;;5.70;3.92;;;;;;;;;;5007594;28;20022;-84
2022/07/09 01:56:13;;;;;;;9.40;3.97;;;;;;;;;;5008346;28;20510;-84
2022/07/09 01:58:38;;;;;;;6.55;4.10;;;;;;;;;;5007887;28;20030;-86
2022/07/09 02:01:04;;;;;;;9.23;4.57;;;;;;;;;;5008006;28;20084;-86
2022/07/09 02:03:29;;;;;;;6.55;4.68;;;;;;;;;;5008973;28;20101;-85
2022/07/09 02:05:54;;;;;;;6.18;4.15;;;;;;;;;;5025022;28;20025;-84
2022/07/09 02:08:19;;;;;;;5.45;3.63;;;;;;;;;;5024463;28;20038;-86
2022/07/09 02:10:45;;;;;;;7.18;4.47;;;;;;;;;;5010035;28;20048;-86
2022/07/09 02:13:11;;;;;;;8.25;4.63;;;;;;;;;;5008408;28;20032;-87
2022/07/09 02:15:36;;;;;;;5.03;4.40;;;;;;;;;;5026031;28;20441;-85
2022/07/09 02:18:01;;;;;;;6.50;3.90;;;;;;;;;;5010423;28;20021;-85
2022/07/09 02:20:26;;;;;;;10.68;4.80;;;;;;;;;;5006542;28;20456;-85
2022/07/09 02:22:52;;;;;;;8.52;4.80;;;;;;;;;;5012728;28;20068;-86
2022/07/09 02:25:17;;;;;;;6.05;4.15;;;;;;;;;;5028958;28;20034;-86
2022/07/09 02:27:42;;;;;;;10.15;5.90;;;;;;;;;;5027882;28;20052;-85
2022/07/09 02:30:08;;;;;;;7.40;4.47;;;;;;;;;;5024948;28;20458;-84
2022/07/09 02:32:33;;;;;;;8.80;4.55;;;;;;;;;;5008616;28;20038;-84
2022/07/09 02:34:58;;;;;;;10.73;4.95;;;;;;;;;;5008954;28;20026;-86
2022/07/09 02:37:24;;;;;;;7.05;4.55;;;;;;;;;;5008245;28;20037;-88
2022/07/09 02:39:49;;;;;;;8.20;4.90;;;;;;;;;;5024364;28;20025;-87
2022/07/09 02:42:14;;;;;;;8.60;4.57;;;;;;;;;;5007588;28;20022;-85
2022/07/09 02:44:43;;;;;;;8.63;4.00;;;;;;;;;;5006276;28;20029;-86
2022/07/09 02:47:08;;;;;;;6.93;4.53;;;;;;;;;;5019793;28;20156;-86
2022/07/09 02:49:33;;;;;;;11.17;5.00;;;;;;;;;;4994602;28;20029;-85
2022/07/09 02:51:59;;;;;;;9.88;5.00;;;;;;;;;;5000170;28;20634;-85
2022/07/09 02:54:25;;;;;;;9.20;5.30;;;;;;;;;;5004384;28;20231;-84
2022/07/09 02:56:50;;;;;;;6.53;4.20;;;;;;;;;;5001357;28;20511;-86
2022/07/09 02:59:15;;;;;;;7.35;4.55;;;;;;;;;;5019096;28;20032;-86
2022/07/09 03:01:40;;;;;;;6.72;4.88;;;;;;;;;;5014451;28;20492;-85
2022/07/09 03:04:05;;;;;;;6.15;4.50;;;;;;;;;;5019606;28;20057;-85
2022/07/09 03:06:31;;;;;;;8.35;4.43;;;;;;;;;;5016092;28;20100;-85
2022/07/09 03:08:56;;;;;;;8.27;4.53;;;;;;;;;;5005879;28;20033;-84
2022/07/09 03:11:21;;;;;;;7.80;4.05;;;;;;;;;;5001976;28;20633;-85
2022/07/09 03:13:46;;;;;;;7.88;5.00;;;;;;;;;;5007374;28;20025;-84
2022/07/09 03:16:11;;;;;;;8.32;4.10;;;;;;;;;;5001432;28;20347;-86
2022/07/09 03:18:38;;;;;;;8.90;4.30;;;;;;;;;;5018006;28;20126;-85
2022/07/09 03:21:04;;;;;;;5.97;4.15;;;;;;;;;;5020635;28;20087;-86
2022/07/09 03:23:29;;;;;;;11.90;4.75;;;;;;;;;;5018809;28;20049;-85
2022/07/09 03:25:55;;;;;;;7.95;4.40;;;;;;;;;;5019265;28;20567;-85
2022/07/09 03:28:20;;;;;;;8.93;4.45;;;;;;;;;;5006732;28;20123;-86
2022/07/09 03:30:46;;;;;;;7.72;4.82;;;;;;;;;;4998879;28;20045;-85
2022/07/09 03:33:11;;;;;;;7.57;4.53;;;;;;;;;;5003872;28;20145;-86
2022/07/09 03:35:36;;;;;;;7.82;5.15;;;;;;;;;;5017740;28;20041;-85
2022/07/09 03:38:01;;;;;;;6.57;4.30;;;;;;;;;;5000906;28;20053;-86
2022/07/09 03:40:27;;;;;;;8.93;4.68;;;;;;;;;;5020365;28;20034;-85
2022/07/09 03:42:52;;;;;;;8.73;4.95;;;;;;;;;;5020629;28;20029;-84
2022/07/09 03:45:17;;;;;;;10.23;5.60;;;;;;;;;;5015665;28;20453;-85
2022/07/09 03:47:43;;;;;;;10.02;5.45;;;;;;;;;;5019606;28;20346;-86
2022/07/09 03:50:08;;;;;;;8.38;5.10;;;;;;;;;;4995977;28;20021;-86
2022/07/09 03:52:33;;;;;;;7.55;5.25;;;;;;;;;;5017610;28;20505;-85
2022/07/09 03:54:59;;;;;;;8.25;5.22;;;;;;;;;;5004086;28;20044;-86
2022/07/09 03:57:24;;;;;;;10.50;5.15;;;;;;;;;;5021133;28;20033;-86
2022/07/09 03:59:49;;;;;;;7.60;5.00;;;;;;;;;;5006737;28;20037;-86
2022/07/09 04:02:14;;;;;;;9.40;5.60;;;;;;;;;;5015725;28;20057;-86
2022/07/09 04:04:40;;;;;;;6.25;4.50;;;;;;;;;;5005776;28;20122;-85
2022/07/09 04:07:05;;;;;;;10.85;5.47;;;;;;;;;;5004583;28;20043;-87
2022/07/09 04:09:30;;;;;;;7.18;4.65;;;;;;;;;;5005793;28;20491;-86
2022/07/09 04:11:56;;;;;;;6.43;4.32;;;;;;;;;;5006904;28;20489;-85
2022/07/09 04:14:21;;;;;;;9.02;6.05;;;;;;;;;;5008651;28;20474;-86
2022/07/09 04:16:46;;;;;;;7.72;5.90;;;;;;;;;;5023915;28;20444;-87
2022/07/09 04:19:12;;;;;;;10.15;5.72;;;;;;;;;;5007048;28;20033;-86
2022/07/09 04:21:37;;;;;;;8.73;5.05;;;;;;;;;;5007250;28;20091;-84
2022/07/09 04:24:02;;;;;;;8.32;4.80;;;;;;;;;;5026397;28;20392;-87
2022/07/09 04:26:28;;;;;;;11.93;5.72;;;;;;;;;;5001324;28;20083;-88
2022/07/09 04:28:53;;;;;;;6.38;5.22;;;;;;;;;;5019693;28;20025;-87
2022/07/09 04:31:21;;;;;;;8.95;6.25;;;;;;;;;;5021314;28;20514;-86
2022/07/09 04:33:46;;;;;;;8.75;5.32;;;;;;;;;;5003589;28;20040;-85
2022/07/09 04:36:11;;;;;;;9.35;4.90;;;;;;;;;;5005773;28;20468;-87
2022/07/09 04:38:37;;;;;;;9.15;5.65;;;;;;;;;;5021755;28;20025;-85
2022/07/09 04:41:02;;;;;;;9.20;4.53;;;;;;;;;;5010036;28;21046;-86
2022/07/09 04:43:27;;;;;;;7.47;5.15;;;;;;;;;;5008883;28;20448;-85
2022/07/09 04:45:53;;;;;;;10.43;5.63;;;;;;;;;;5026277;28;20045;-86
2022/07/09 04:48:18;;;;;;;8.07;5.47;;;;;;;;;;5004195;28;20075;-85
2022/07/09 04:50:43;;;;;;;8.05;5.32;;;;;;;;;;5003346;28;20025;-85
2022/07/09 04:53:08;;;;;;;10.27;5.75;;;;;;;;;;5005204;28;20025;-87
2022/07/09 04:55:34;;;;;;;6.68;4.43;;;;;;;;;;5025514;28;20025;-88
2022/07/09 04:57:59;;;;;;;7.97;5.28;;;;;;;;;;5020495;28;20041;-85
2022/07/09 05:00:24;;;;;;;7.13;5.22;;;;;;;;;;5004771;28;20497;-84
2022/07/09 05:02:49;;;;;;;9.23;6.05;;;;;;;;;;5011770;28;20765;-86
2022/07/09 05:05:15;;;;;;;9.07;5.63;;;;;;;;;;5025578;28;20041;-86
2022/07/09 05:07:41;;;;;;;13.60;5.75;;;;;;;;;;5008310;28;20126;-85
2022/07/09 05:10:07;;;;;;;10.93;6.68;;;;;;;;;;5011367;28;20025;-86
2022/07/09 05:12:32;;;;;;;8.68;6.03;;;;;;;;;;5025490;28;20056;-84
2022/07/09 05:14:57;;;;;;;7.53;5.68;;;;;;;;;;5004975;28;20080;-84
2022/07/09 05:17:26;;;;;;;15.15;8.20;;;;;;;;;;5023691;28;20541;-84
2022/07/09 05:19:54;;;;;;;9.30;5.10;;;;;;;;;;5000799;28;20029;-85
2022/07/09 05:22:19;;;;;;;7.88;5.47;;;;;;;;;;5007275;28;20397;-84
2022/07/09 05:24:45;;;;;;;10.25;5.85;;;;;;;;;;5022703;28;20036;-85
2022/07/09 05:27:10;;;;;;;9.18;5.43;;;;;;;;;;5021770;28;20032;-85
2022/07/09 05:29:35;;;;;;;12.88;5.80;;;;;;;;;;5024067;28;20036;-85
2022/07/09 05:32:01;;;;;;;11.63;7.05;;;;;;;;;;5027352;28;20600;-85
2022/07/09 05:34:29;;;;;;;7.30;4.68;;;;;;;;;;5025310;28;20040;-86
2022/07/09 05:36:58;;;;;;;14.68;7.65;;;;;;;;;;5025013;28;20037;-87
2022/07/09 05:39:24;;;;;;;7.07;4.70;;;;;;;;;;5028921;28;20025;-85
2022/07/09 05:41:49;;;;;;;8.68;5.78;;;;;;;;;;5008539;28;20042;-85
2022/07/09 05:44:14;;;;;;;13.95;6.47;;;;;;;;;;5027967;28;20041;-85
2022/07/09 05:46:40;;;;;;;8.70;4.95;;;;;;;;;;5007076;28;20063;-86
2022/07/09 05:49:05;;;;;;;10.85;5.68;;;;;;;;;;5023317;28;20096;-84
2022/07/09 05:51:31;;;;;;;10.35;5.78;;;;;;;;;;5013866;28;20075;-87
2022/07/09 05:53:56;;;;;;;10.07;5.45;;;;;;;;;;5011611;28;20033;-85
2022/07/09 05:56:21;;;;;;;9.10;5.65;;;;;;;;;;5006670;28;20031;-86
2022/07/09 05:58:47;;;;;;;12.45;6.15;;;;;;;;;;5011112;28;20034;-85
2022/07/09 06:01:13;;;;;;;11.00;5.93;;;;;;;;;;5026781;28;20036;-86
2022/07/09 06:03:38;;;;;;;9.35;5.07;;;;;;;;;;5009892;28;20053;-87
2022/07/09 06:06:04;;;;;;;10.88;4.97;;;;;;;;;;5025882;28;20041;-85
2022/07/09 06:08:29;;;;;;;8.10;5.43;;;;;;;;;;5004178;28;20030;-85
2022/07/09 06:10:54;;;;;;;8.40;5.25;;;;;;;;;;5005956;28;20044;-85
2022/07/09 06:13:19;;;;;;;10.98;5.70;;;;;;;;;;5024346;28;20028;-85
2022/07/09 06:15:44;;;;;;;9.55;5.78;;;;;;;;;;5005669;28;20037;-85
2022/07/09 06:18:10;;;;;;;9.48;4.75;;;;;;;;;;5009310;28;20018;-85
2022/07/09 06:20:35;;;;;;;8.73;4.57;;;;;;;;;;5011963;28;20032;-85
2022/07/09 06:23:00;;;;;;;7.65;4.15;;;;;;;;;;5008327;28;20470;-88
2022/07/09 06:25:26;;;;;;;7.13;5.43;;;;;;;;;;5025341;28;20029;-86
2022/07/09 06:27:51;;;;;;;5.28;3.90;;;;;;;;;;5013913;28;20325;-85
2022/07/09 06:30:20;;;;;;;8.95;6.40;;;;;;;;;;5005896;28;20075;-86
2022/07/09 06:32:45;;;;;;;8.95;5.38;;;;;;;;;;5021483;28;20021;-86
2022/07/09 06:35:10;;;;;;;7.63;5.03;;;;;;;;;;5026045;28;20087;-85
2022/07/09 06:37:35;;;;;;;7.47;3.75;;;;;;;;;;5022376;28;20064;-87
2022/07/09 06:40:01;;;;;;;9.13;4.25;;;;;;;;;;5019771;28;20029;-87
2022/07/09 06:42:26;;;;;;;10.60;4.22;;;;;;;;;;5017551;28;20091;-86
2022/07/09 06:44:54;;;;;;;6.78;3.92;;;;;;;;;;5000037;28;20459;-85
2022/07/09 06:47:20;;;;;;;10.00;4.10;;;;;;;;;;5019220;28;20041;-85
2022/07/09 06:49:46;;;;;;;7.78;3.65;;;;;;;;;;5027725;28;20083;-87
2022/07/09 06:52:11;;;;;;;5.15;4.03;;;;;;;;;;5007196;28;20546;-85
2022/07/09 06:54:37;;;;;;;6.80;4.30;;;;;;;;;;5021103;28;20033;-85
2022/07/09 06:57:03;;;;;;;5.75;3.65;;;;;;;;;;5021519;28;20678;-84
2022/07/09 06:59:28;;;;;;;5.00;3.55;;;;;;;;;;4997254;28;20205;-86
2022/07/09 07:01:53;;;;;;;4.93;3.25;;;;;;;;;;5009301;28;20108;-84
2022/07/09 07:04:20;;;;;;;7.18;3.55;;;;;;;;;;5002410;28;20200;-88
2022/07/09 07:06:48;;;;;;;5.82;4.13;;;;;;;;;;5005009;28;20056;-85
2022/07/09 07:09:15;;;;;;;8.55;3.78;;;;;;;;;;5018495;28;20030;-83
2022/07/09 07:11:43;;;;;;;7.13;3.00;;;;;;;;;;5020208;28;20023;-84
2022/07/09 07:14:08;;;;;;;6.85;3.80;;;;;;;;;;5004126;28;21519;-84
2022/07/09 07:16:34;;;;;;;5.90;2.70;;;;;;;;;;5004964;28;20032;-86
2022/07/09 07:18:59;;;;;;;6.38;2.95;;;;;;;;;;5001295;28;20026;-83
2022/07/09 07:21:24;;;;;;;4.00;2.65;;;;;;;;;;5000236;28;20106;-86
2022/07/09 07:23:49;;;;;;;4.53;2.63;;;;;;;;;;5005544;28;20057;-84
2022/07/09 07:26:14;;;;;;;5.75;2.63;;;;;;;;;;5001074;28;20022;-84
2022/07/09 07:28:40;;;;;;;3.90;2.47;;;;;;;;;;5002548;28;20112;-86
2022/07/09 07:31:05;;;;;;;5.07;2.28;;;;;;;;;;5020089;28;20036;-86
2022/07/09 07:33:30;;;;;;;4.50;2.67;;;;;;;;;;5007568;28;20026;-86
2022/07/09 07:35:58;;;;;;;3.22;2.13;;;;;;;;;;5003939;28;20096;-85
2022/07/09 07:38:27;;;;;;;4.75;2.42;;;;;;;;;;5005438;28;20108;-85
2022/07/09 07:40:53;;;;;;;6.20;2.50;;;;;;;;;;5003490;28;20076;-84
2022/07/09 07:43:19;;;;;;;6.38;2.45;;;;;;;;;;4999031;28;20029;-86
2022/07/09 07:45:44;;;;;;;6.45;2.22;;;;;;;;;;5002735;28;20393;-83
2022/07/09 07:48:09;;;;;;;3.58;2.90;;;;;;;;;;5015600;28;20052;-85
2022/07/09 07:50:38;;;;;;;5.35;2.20;;;;;;;;;;5020064;28;20765;-84
2022/07/09 07:53:03;;;;;;;5.15;2.38;;;;;;;;;;5006607;28;20381;-85
2022/07/09 07:55:28;;;;;;;3.13;2.80;;;;;;;;;;5020375;28;20030;-86
2022/07/09 07:57:54;;;;;;;5.20;2.38;;;;;;;;;;5007892;28;20030;-84
2022/07/09 08:00:22;;;;;;;4.30;2.53;;;;;;;;;;5001395;28;21695;-86
2022/07/09 08:02:47;;;;;;;4.07;2.83;;;;;;;;;;5021292;28;20275;-87
2022/07/09 08:05:13;;;;;;;6.18;2.80;;;;;;;;;;5004968;28;20437;-84
2022/07/09 08:07:38;;;;;;;4.93;3.10;;;;;;;;;;5015031;28;20041;-81
2022/07/09 08:10:03;;;;;;;3.77;2.70;;;;;;;;;;5001665;28;20026;-79
2022/07/09 08:12:29;;;;;;;6.18;3.15;;;;;;;;;;5006295;28;20821;-86
2022/07/09 08:14:55;;;;;;;7.07;2.17;;;;;;;;;;5003857;28;20113;-78
2022/07/09 08:17:23;;;;;;;5.40;2.53;;;;;;;;;;5003271;28;20117;-78
2022/07/09 08:19:48;;;;;;;4.80;2.33;;;;;;;;;;5002858;28;20100;-78
2022/07/09 08:22:13;;;;;;;3.90;2.28;;;;;;;;;;5017159;28;20981;-83
2022/07/09 08:24:38;;;;;;;5.53;2.45;;;;;;;;;;4995637;28;20123;-85
2022/07/09 08:27:04;;;;;;;4.22;2.92;;;;;;;;;;5004709;28;20128;-83
2022/07/09 08:29:29;;;;;;;9.75;2.92;;;;;;;;;;5006662;28;20022;-80
2022/07/09 08:31:55;;;;;;;5.35;2.40;;;;;;;;;;5001377;28;20033;-79
2022/07/09 08:34:20;;;;;;;4.78;2.35;;;;;;;;;;5016829;28;20061;-78
2022/07/09 08:36:45;;;;;;;6.28;2.75;;;;;;;;;;5006990;28;20048;-79
2022/07/09 08:39:11;;;;;;;6.38;3.08;;;;;;;;;;5005230;28;20037;-79
2022/07/09 08:41:36;;;;;;;8.30;3.67;;;;;;;;;;5004085;28;20029;-85
2022/07/09 08:44:02;;;;;;;13.13;2.63;;;;;;;;;;5005872;28;20121;-82
2022/07/09 08:46:28;;;;;;;2.50;1.80;;;;;;;;;;5002024;28;20026;-84
2022/07/09 08:48:54;;;;;;;8.20;2.92;;;;;;;;;;4997956;28;20519;-84
2022/07/09 08:51:20;;;;;;;5.57;2.13;;;;;;;;;;5004171;28;20032;-84
2022/07/09 08:53:45;;;;;;;6.82;2.20;;;;;;;;;;5003819;28;20072;-85
2022/07/09 08:56:11;;;;;;;4.40;2.17;;;;;;;;;;5003891;28;20026;-77
2022/07/09 08:58:39;;;;;;;3.35;1.90;;;;;;;;;;5003630;28;20034;-83
2022/07/09 09:01:06;;;;;;;3.47;2.17;;;;;;;;;;4997672;28;21544;-82
2022/07/09 09:03:31;;;;;;;3.60;2.03;;;;;;;;;;5002880;28;20597;-77
2022/07/09 09:06:01;;;;;;;5.88;1.83;;;;;;;;;;5004961;28;20111;-77
2022/07/09 09:08:27;;;;;;;12.38;2.58;;;;;;;;;;5027458;28;20033;-84
2022/07/09 09:10:52;;;;;;;4.20;2.08;;;;;;;;;;4999741;28;20055;-82
2022/07/09 09:13:17;;;;;;;3.83;2.10;;;;;;;;;;5019966;28;20048;-81
2022/07/09 09:15:43;;;;;;;6.07;1.83;;;;;;;;;;5023586;28;20397;-80
2022/07/09 09:18:08;;;;;;;2.72;1.63;;;;;;;;;;5023808;28;20493;-80
2022/07/09 09:20:34;;;;;;;4.70;1.88;;;;;;;;;;5024622;28;20485;-81
2022/07/09 09:23:00;;;;;;;2.38;1.58;;;;;;;;;;5003126;28;20125;-82
2022/07/09 09:25:25;;;;;;;5.20;2.00;;;;;;;;;;5022597;28;20412;-78
2022/07/09 09:27:51;;;;;;;5.20;1.70;;;;;;;;;;5005448;28;20045;-78
2022/07/09 09:30:17;;;;;;;2.42;1.70;;;;;;;;;;5018786;28;20381;-89
2022/07/09 09:32:42;;;;;;;4.05;1.85;;;;;;;;;;5006794;28;20033;-82
2022/07/09 09:35:07;;;;;;;4.50;1.55;;;;;;;;;;5006169;28;20464;-85
2022/07/09 09:37:33;;;;;;;5.35;1.95;;;;;;;;;;4995892;28;20119;-83
2022/07/09 09:39:58;;;;;;;7.57;2.10;;;;;;;;;;5004946;28;20072;-78
2022/07/09 09:42:25;;;;;;;2.63;1.92;;;;;;;;;;5027669;28;20147;-83
2022/07/09 09:44:51;;;;;;;4.97;2.20;;;;;;;;;;5027209;28;20409;-83
2022/07/09 09:47:19;;;;;;;2.83;1.85;;;;;;;;;;5007967;28;20033;-77
2022/07/09 09:49:45;;;;;;;2.67;1.90;;;;;;;;;;5019184;28;20029;-77
2022/07/09 09:52:11;;;;;;;4.57;2.80;;;;;;;;;;5007235;28;20028;-83
2022/07/09 09:54:42;;;;;;;4.15;2.13;;;;;;;;;;5007638;28;20018;-83
2022/07/09 09:57:13;;;;;;;5.63;1.95;;;;;;;;;;5004946;28;20120;-77
2022/07/09 09:59:41;;;;;;;3.42;1.70;;;;;;;;;;5031781;28;20025;-81
2022/07/09 10:02:09;;;;;;;4.28;2.30;;;;;;;;;;4998801;28;20090;-81
2022/07/09 10:04:35;;;;;;;4.20;1.77;;;;;;;;;;5003694;28;20816;-77
2022/07/09 10:07:00;;;;;;;6.50;1.60;;;;;;;;;;5009839;28;20091;-76
2022/07/09 10:09:25;;;;;;;2.67;1.63;;;;;;;;;;5003708;28;20433;-83
2022/07/09 10:11:51;;;;;;;3.55;1.80;;;;;;;;;;5009775;28;20038;-76
2022/07/09 10:14:28;;;;;;;2.83;1.80;;;;;;;;;;5004489;28;20022;-78
2022/07/09 10:16:53;;;;;;;1.90;1.63;;;;;;;;;;5000748;28;20466;-77
2022/07/09 10:19:26;;;;;;;6.72;1.95;;;;;;;;;;5006477;28;20034;-77
2022/07/09 10:21:51;;;;;;;;;;;;;;;;;;4997035;28;20036;-82
2022/07/09 10:24:27;;;;;;;4.07;1.67;;;;;;;;;;5003485;28;20032;-82
2022/07/09 10:27:02;;;;;;;56.55;6.07;;;;;;;;;;4996738;28;20037;-85
2022/07/09 10:29:28;;;;;;;14.27;2.20;;;;;;;;;;5001530;28;20034;-82
2022/07/09 10:31:54;;;;;;;3.60;1.60;;;;;;;;;;5012400;28;20370;-83
2022/07/09 10:34:38;;;;;;;5.60;1.50;;;;;;;;;;5006246;28;20076;-85
2022/07/09 10:37:04;;;;;;;3.67;1.73;;;;;;;;;;5009409;28;20392;-79
2022/07/09 10:39:30;;;;;;;2.00;1.60;;;;;;;;;;5008804;28;20037;-89
2022/07/09 10:42:22;;;;;;;2.55;1.45;;;;;;;;;;5014412;28;20030;-77
2022/07/09 10:44:51;;;;;;;5.95;1.90;;;;;;;;;;4995952;28;20057;-79
2022/07/09 10:47:16;;;;;;;4.32;1.85;;;;;;;;;;5003495;28;20358;-85
2022/07/09 10:49:42;;;;;;;4.18;1.60;;;;;;;;;;5003570;28;20038;-77
2022/07/09 10:52:08;;;;;;;4.13;1.60;;;;;;;;;;5006633;28;20037;-86
2022/07/09 10:54:33;;;;;;;3.78;1.80;;;;;;;;;;4999442;28;20029;-78
2022/07/09 10:56:59;;;;;;;2.17;1.63;;;;;;;;;;5002345;28;20026;-77
2022/07/09 10:59:24;;;;;;;3.88;1.90;;;;;;;;;;5005131;28;20026;-86
2022/07/09 11:01:55;;;;;;;3.90;1.65;;;;;;;;;;5003724;28;20045;-78
2022/07/09 11:04:30;;;;;;;4.95;1.73;;;;;;;;;;5011631;28;20049;-80
2022/07/09 11:06:56;;;;;;;2.33;1.52;;;;;;;;;;5023117;28;20048;-86
2022/07/09 11:09:25;;;;;;;2.63;1.50;;;;;;;;;;5026449;28;20017;-86
2022/07/09 11:11:53;;;;;;;5.07;1.50;;;;;;;;;;5021994;28;20494;-84
2022/07/09 11:14:18;;;;;;;4.57;1.73;;;;;;;;;;4999973;28;20393;-86
2022/07/09 11:16:52;;;;;;;3.47;1.40;;;;;;;;;;5017784;28;20428;-86
2022/07/09 11:19:19;;;;;;;6.88;1.42;;;;;;;;;;5021372;28;20355;-86
2022/07/09 11:21:45;;;;;;;3.17;1.52;;;;;;;;;;5006627;28;20037;-86
2022/07/09 11:24:14;;;;;;;6.60;2.13;;;;;;;;;;5005978;28;20021;-77
2022/07/09 11:26:40;;;;;;;3.80;1.20;;;;;;;;;;5020670;28;20029;-78
2022/07/09 11:29:08;;;;;;;3.10;1.55;;;;;;;;;;5001958;28;20048;-78
2022/07/09 11:31:36;;;;;;;1.75;1.25;;;;;;;;;;5021851;28;20024;-83
2022/07/09 11:34:13;;;;;;;10.20;1.98;;;;;;;;;;5007474;28;20425;-85
2022/07/09 11:36:39;;;;;;;3.30;2.03;;;;;;;;;;5002105;28;20029;-82
2022/07/09 11:39:04;;;;;;;7.28;2.10;;;;;;;;;;5004519;28;20021;-79
2022/07/09 11:41:42;;;;;;;8.57;2.80;;;;;;;;;;5017245;28;20116;-80
2022/07/09 11:44:08;;;;;;;1.55;1.17;;;;;;;;;;5024168;28;20080;-79
2022/07/09 11:46:33;;;;;;;3.53;1.45;;;;;;;;;;5020797;28;20029;-80
2022/07/09 11:48:58;;;;;;;2.20;1.25;;;;;;;;;;5021907;28;20127;-80
2022/07/09 11:51:33;;;;;;;2.15;1.15;;;;;;;;;;5023074;28;20049;-80
2022/07/09 11:54:02;;;;;;;4.95;1.40;;;;;;;;;;5023793;28;20557;-79
2022/07/09 11:56:27;;;;;;;2.35;1.10;;;;;;;;;;5021996;28;20097;-79
2022/07/09 11:58:53;;;;;;;4.03;1.67;;;;;;;;;;5018923;28;20389;-79
2022/07/09 12:01:19;;;;;;;2.33;1.30;;;;;;;;;;5023212;28;20056;-80
2022/07/09 12:03:48;;;;;;;6.57;2.15;;;;;;;;;;5004456;28;20025;-80
2022/07/09 12:06:14;;;;;;;4.82;1.10;;;;;;;;;;5026838;28;20034;-79
2022/07/09 12:08:39;;;;;;;3.05;1.30;;;;;;;;;;5008220;28;20445;-80
2022/07/09 12:11:05;;;;;;;3.60;1.48;;;;;;;;;;5027848;28;20076;-80
2022/07/09 12:13:33;;;;;;;3.55;1.10;;;;;;;;;;5029312;28;20029;-81
2022/07/09 12:15:58;;;;;;;8.88;1.70;;;;;;;;;;5023587;28;20497;-82
2022/07/09 12:18:23;;;;;;;5.15;1.80;;;;;;;;;;5025100;28;20110;-78
2022/07/09 12:20:49;;;;;;;2.85;1.15;;;;;;;;;;5031777;28;20111;-79
2022/07/09 12:23:14;;;;;;;6.40;2.53;;;;;;;;;;5028940;28;20132;-80
2022/07/09 12:25:39;;;;;;;4.63;2.10;;;;;;;;;;5024891;28;20274;-83
2022/07/09 12:28:05;;;;;;;9.85;2.78;;;;;;;;;;5032764;28;20804;-80
2022/07/09 12:30:30;;;;;;;6.30;2.35;;;;;;;;;;5034133;28;20028;-83
2022/07/09 12:32:58;;;;;;;6.72;2.28;;;;;;;;;;5037224;28;20036;-80
2022/07/09 12:35:23;;;;;;;6.25;2.38;;;;;;;;;;5011050;28;20112;-80
2022/07/09 12:37:48;;;;;;;7.60;3.17;;;;;;;;;;5026596;28;20156;-81
2022/07/09 12:40:14;;;;;;;11.82;2.63;;;;;;;;;;5028539;28;20033;-84
2022/07/09 12:42:39;;;;;;;10.15;2.92;;;;;;;;;;5011816;28;20030;-79
2022/07/09 12:45:08;;;;;;;5.43;2.40;;;;;;;;;;5024282;28;20116;-82
2022/07/09 12:47:36;;;;;;;7.82;2.30;;;;;;;;;;5011927;28;20033;-80
2022/07/09 12:50:03;;;;;;;5.13;2.38;;;;;;;;;;5011956;28;20068;-82
2022/07/09 12:52:31;;;;;;;8.68;2.30;;;;;;;;;;5007887;28;20034;-81
2022/07/09 12:54:56;;;;;;;8.20;2.33;;;;;;;;;;5031954;28;20480;-79
2022/07/09 12:57:21;;;;;;;8.95;2.42;;;;;;;;;;5025907;28;20048;-81
2022/07/09 12:59:46;;;;;;;5.23;2.07;;;;;;;;;;5019110;28;20026;-79
2022/07/09 13:02:12;;;;;;;8.52;1.90;;;;;;;;;;4992755;28;20694;-82
2022/07/09 13:04:40;;;;;;;7.03;2.50;;;;;;;;;;5016761;28;20095;-83
2022/07/09 13:07:08;;;;;;;8.32;2.25;;;;;;;;;;5001290;28;20041;-78
2022/07/09 13:09:34;;;;;;;5.43;1.85;;;;;;;;;;5017276;28;20025;-82
2022/07/09 13:11:59;;;;;;;5.43;2.03;;;;;;;;;;5021126;28;20032;-78
2022/07/09 13:14:24;;;;;;;4.10;1.70;;;;;;;;;;5016490;28;20031;-78
2022/07/09 13:16:49;;;;;;;5.35;1.75;;;;;;;;;;5016378;28;20481;-82
2022/07/09 13:19:15;;;;;;;7.20;1.67;;;;;;;;;;5002291;28;20405;-82
2022/07/09 13:21:40;;;;;;;7.22;1.58;;;;;;;;;;5013202;28;20133;-78
2022/07/09 13:24:05;;;;;;;5.63;1.42;;;;;;;;;;5001994;28;20113;-79
2022/07/09 13:26:30;;;;;;;3.25;1.90;;;;;;;;;;5015896;28;20032;-79
2022/07/09 13:28:55;;;;;;;3.70;1.10;;;;;;;;;;5015697;28;20119;-79
2022/07/09 13:31:21;;;;;;;7.93;1.60;;;;;;;;;;5002668;28;20013;-78
2022/07/09 13:33:46;;;;;;;6.13;1.65;;;;;;;;;;5015463;28;20307;-81
2022/07/09 13:36:15;;;;;;;4.05;1.33;;;;;;;;;;5022926;28;20022;-81
2022/07/09 13:38:43;;;;;;;6.20;1.67;;;;;;;;;;5015782;28;20120;-83
2022/07/09 13:41:08;;;;;;;2.17;1.50;;;;;;;;;;5018565;28;20092;-81
2022/07/09 13:43:33;;;;;;;7.05;1.52;;;;;;;;;;5015781;28;20082;-81
2022/07/09 13:45:59;;;;;;;7.50;2.47;;;;;;;;;;5012531;28;20068;-82
2022/07/09 13:48:27;;;;;;;4.50;1.27;;;;;;;;;;4998714;28;20061;-82
2022/07/09 13:50:53;;;;;;;1.52;1.20;;;;;;;;;;5013322;28;20037;-81
2022/07/09 13:53:19;;;;;;;2.65;1.30;;;;;;;;;;5015701;28;20031;-79
2022/07/09 13:55:47;;;;;;;2.95;1.40;;;;;;;;;;4999388;28;20021;-81
2022/07/09 13:58:13;;;;;;;4.28;1.17;;;;;;;;;;4999512;28;20088;-80
2022/07/09 14:00:38;;;;;;;5.18;2.55;;;;;;;;;;4986381;28;20433;-83
2022/07/09 14:03:03;;;;;;;7.20;1.63;;;;;;;;;;5030554;28;20029;-83
2022/07/09 14:05:29;;;;;;;3.63;1.50;;;;;;;;;;5029156;28;20046;-79
2022/07/09 14:07:55;;;;;;;5.35;1.63;;;;;;;;;;5026871;28;20164;-81
2022/07/09 14:10:24;;;;;;;5.88;1.30;;;;;;;;;;5004218;28;20041;-79
2022/07/09 14:12:52;;;;;;;4.68;1.48;;;;;;;;;;5022920;28;20038;-82
2022/07/09 14:15:18;;;;;;;7.60;2.13;;;;;;;;;;5020957;28;20036;-78
2022/07/09 14:17:43;;;;;;;3.42;1.20;;;;;;;;;;5027920;28;20025;-78
2022/07/09 14:20:11;;;;;;;4.25;1.13;;;;;;;;;;5031198;28;20029;-81
2022/07/09 14:22:37;;;;;;;4.88;1.52;;;;;;;;;;5031416;28;20119;-79
2022/07/09 14:25:02;;;;;;;5.47;1.45;;;;;;;;;;5032420;28;20108;-78
2022/07/09 14:27:27;;;;;;;2.55;1.80;;;;;;;;;;5030685;28;20201;-82
2022/07/09 14:29:57;;;;;;;4.93;1.60;;;;;;;;;;5032977;28;20046;-79
2022/07/09 14:32:22;;;;;;;2.33;1.17;;;;;;;;;;5009212;28;20041;-82
2022/07/09 14:34:47;;;;;;;4.55;1.40;;;;;;;;;;5032786;28;20370;-78